| ตารางข้อมูล | ค้นข้อมูล1 | ค้นข้อมูล2 | ค่าสูงสุด-ต่ำสุด |  

Select Sensor -->| 20402 | 4529A | 4529C | 4529D | 4529E | 4529F | 89M1A | 89M1B | หน้าจอย่อ | 4529 |
ข้อมูลรวม (ยังไม่ได้เลือก Sensor)

IDDate TimeRoom  Temp  Humidity RSSI Time
 1059546  2026-05-10 06:32:15  4529D  29.6 °C  74.8 %   06:32 
 1059545  2026-05-10 06:31:46  4529A  27.5 °C  36.7 %   06:31 
 1059544  2026-05-10 06:31:13  4529C  26.0 °C  56.0 %   06:31 
 1059543  2026-05-10 06:27:56  20402  30.2 °C  58.4 %   06:27 
 1059542  2026-05-10 06:22:42  4529D  29.6 °C  75.0 %   06:22 
 1059541  2026-05-10 06:21:36  4529A  27.4 °C  37.4 %   06:21 
 1059540  2026-05-10 06:20:59  4529C  26.2 °C  56.2 %   06:20 
 1059539  2026-05-10 06:17:47  20402  30.3 °C  58.3 %   06:17 
 1059538  2026-05-10 06:13:09  4529D  29.6 °C  74.8 %   06:13 
 1059537  2026-05-10 06:11:26  4529A  27.3 °C  37.4 %   06:11 
 1059536  2026-05-10 06:10:47  4529C  26.1 °C  54.9 %   06:10 
 1059535  2026-05-10 06:07:37  20402  30.2 °C  58.4 %   06:07 
 1059534  2026-05-10 06:03:37  4529D  29.6 °C  74.8 %   06:03 
 1059533  2026-05-10 06:01:14  4529A  27.1 °C  37.6 %   06:01 
 1059532  2026-05-10 06:00:36  4529C  26.4 °C  56.1 %   06:00 
 1059531  2026-05-10 05:57:27  20402  30.2 °C  58.4 %   05:57 
 1059530  2026-05-10 05:54:04  4529D  29.7 °C  74.8 %   05:54 
 1059529  2026-05-10 05:51:03  4529A  27.1 °C  37.5 %   05:51 
 1059528  2026-05-10 05:50:25  4529C  26.5 °C  55.3 %   05:50 
 1059527  2026-05-10 05:47:15  20402  30.3 °C  57.9 %   05:47 
 1059526  2026-05-10 05:44:32  4529D  29.7 °C  74.8 %   05:44 
 1059525  2026-05-10 05:40:50  4529A  27.3 °C  36.9 %   05:40 
 1059524  2026-05-10 05:40:12  4529C  26.8 °C  56.1 %   05:40 
 1059523  2026-05-10 05:37:05  20402  30.2 °C  58.0 %   05:37 
 1059522  2026-05-10 05:34:59  4529D  29.7 °C  74.8 %   05:34 
 1059521  2026-05-10 05:30:39  4529A  27.3 °C  36.6 %   05:30 
 1059520  2026-05-10 05:30:01  4529C  27.0 °C  56.7 %   05:30 
 1059519  2026-05-10 05:26:55  20402  30.2 °C  57.9 %   05:26 
 1059518  2026-05-10 05:25:26  4529D  29.7 °C  74.8 %   05:25 
 1059517  2026-05-10 05:20:27  4529A  27.3 °C  36.7 %   05:20 
 1059516  2026-05-10 05:19:49  4529C  27.1 °C  56.1 %   05:19 
 1059515  2026-05-10 05:16:43  20402  30.3 °C  58.0 %   05:16 
 1059514  2026-05-10 05:15:53  4529D  29.7 °C  74.6 %   05:15 
 1059513  2026-05-10 05:10:13  4529A  27.1 °C  36.5 %   05:10 
 1059512  2026-05-10 05:09:37  4529C  27.2 °C  55.1 %   05:09 
 1059511  2026-05-10 05:06:33  20402  30.2 °C  58.0 %   05:06 
 1059510  2026-05-10 05:06:21  4529D  29.8 °C  74.7 %   05:06 
 1059509  2026-05-10 05:00:01  4529A  27.2 °C  35.9 %   05:00 
 1059508  2026-05-10 04:59:25  4529C  27.0 °C  56.0 %   04:59 
 1059507  2026-05-10 04:56:48  4529D  29.8 °C  74.6 %   04:56 
 1059506  2026-05-10 04:56:20  20402  30.3 °C  57.8 %   04:56 
 1059505  2026-05-10 04:49:49  4529A  27.2 °C  36.0 %   04:49 
 1059504  2026-05-10 04:49:13  4529C  27.1 °C  54.4 %   04:49 
 1059503  2026-05-10 04:47:16  4529D  29.8 °C  74.6 %   04:47 
 1059502  2026-05-10 04:46:11  20402  30.3 °C  57.5 %   04:46 
 1059501  2026-05-10 04:39:39  4529A  27.6 °C  35.8 %   04:39 
 1059500  2026-05-10 04:39:01  4529C  26.9 °C  51.4 %   04:39 
 1059499  2026-05-10 04:37:44  4529D  29.8 °C  74.5 %   04:37 
 1059498  2026-05-10 04:36:01  20402  30.3 °C  57.8 %   04:36 
 1059497  2026-05-10 04:29:27  4529A  27.8 °C  35.8 %   04:29 
 1059496  2026-05-10 04:28:49  4529C  26.5 °C  49.6 %   04:28 
 1059495  2026-05-10 04:28:11  4529D  29.8 °C  74.5 %   04:28 
 1059494  2026-05-10 04:25:51  20402  30.3 °C  57.8 %   04:25 
 1059493  2026-05-10 04:19:17  4529A  27.9 °C  35.9 %   04:19 
 1059492  2026-05-10 04:18:39  4529D  29.9 °C  74.5 %   04:18 
 1059491  2026-05-10 04:18:38  4529C  26.4 °C  49.3 %   04:18 
 1059490  2026-05-10 04:15:41  20402  30.3 °C  57.5 %   04:15 
 1059489  2026-05-10 04:09:06  4529A  27.5 °C  36.4 %   04:09 
 1059488  2026-05-10 04:09:06  4529D  29.9 °C  74.5 %   04:09 
 1059487  2026-05-10 04:08:26  4529C  25.8 °C  47.8 %   04:08 
 1059486  2026-05-10 04:05:32  20402  30.3 °C  57.3 %   04:05 
 1059485  2026-05-10 03:59:32  4529D  29.9 °C  74.5 %   03:59 
 1059484  2026-05-10 03:58:54  4529A  27.7 °C  36.9 %   03:58 
 1059483  2026-05-10 03:58:14  4529C  25.9 °C  47.3 %   03:58 
 1059482  2026-05-10 03:55:22  20402  30.3 °C  57.5 %   03:55 
 1059481  2026-05-10 03:49:59  4529D  30.0 °C  74.6 %   03:49 
 1059480  2026-05-10 03:48:42  4529A  27.6 °C  37.2 %   03:48 
 1059479  2026-05-10 03:48:02  4529C  25.9 °C  47.4 %   03:48 
 1059478  2026-05-10 03:45:12  20402  30.3 °C  57.4 %   03:45 
 1059477  2026-05-10 03:40:27  4529D  30.0 °C  74.6 %   03:40 
 1059476  2026-05-10 03:38:30  4529A  28.2 °C  37.5 %   03:38 
 1059475  2026-05-10 03:37:48  4529C  25.8 °C  46.7 %   03:37 
 1059474  2026-05-10 03:35:02  20402  30.3 °C  57.6 %   03:35 
 1059473  2026-05-10 03:30:54  4529D  30.0 °C  74.6 %   03:30 
 1059472  2026-05-10 03:28:18  4529A  28.2 °C  37.0 %   03:28 
 1059471  2026-05-10 03:27:33  4529C  26.3 °C  46.4 %   03:27 
 1059470  2026-05-10 03:24:53  20402  30.4 °C  57.6 %   03:24 
 1059469  2026-05-10 03:21:22  4529D  30.0 °C  74.6 %   03:21 
 1059468  2026-05-10 03:18:06  4529A  28.2 °C  37.2 %   03:18 
 1059467  2026-05-10 03:17:21  4529C  25.8 °C  46.6 %   03:17 
 1059466  2026-05-10 03:14:43  20402  30.4 °C  57.3 %   03:14 
 1059465  2026-05-10 03:11:49  4529D  30.0 °C  74.5 %   03:11 
 1059464  2026-05-10 03:07:52  4529A  28.4 °C  37.7 %   03:07 
 1059463  2026-05-10 03:07:09  4529C  26.3 °C  47.3 %   03:07 
 1059462  2026-05-10 03:04:33  20402  30.4 °C  57.4 %   03:04 
 1059461  2026-05-10 03:02:17  4529D  30.1 °C  74.6 %   03:02 
 1059460  2026-05-10 02:57:40  4529A  28.3 °C  38.2 %   02:57 
 1059459  2026-05-10 02:56:57  4529C  26.3 °C  47.3 %   02:56 
 1059458  2026-05-10 02:54:23  20402  30.4 °C  57.4 %   02:54 
 1059457  2026-05-10 02:52:44  4529D  30.1 °C  74.6 %   02:52 
 1059456  2026-05-10 02:47:28  4529A  28.1 °C  38.2 %   02:47 
 1059455  2026-05-10 02:44:14  20402  30.4 °C  57.4 %   02:44 
 1059454  2026-05-10 02:43:11  4529D  30.1 °C  74.6 %   02:43 
 1059453  2026-05-10 02:37:15  4529A  28.1 °C  38.9 %   02:37 
 1059452  2026-05-10 02:36:24  4529C  25.9 °C  46.0 %   02:36 
 1059451  2026-05-10 02:34:02  20402  30.4 °C  56.6 %   02:34 
 1059450  2026-05-10 02:33:39  4529D  30.2 °C  74.6 %   02:33 
 1059449  2026-05-10 02:27:02  4529A  28.2 °C  38.1 %   02:27 
 1059448  2026-05-10 02:26:13  4529C  26.8 °C  45.4 %   02:26 
 1059447  2026-05-10 02:24:06  4529D  30.2 °C  74.5 %   02:24 
 1059446  2026-05-10 02:23:52  20402  30.4 °C  56.8 %   02:23 
 1059445  2026-05-10 02:16:48  4529A  28.0 °C  38.0 %   02:16 
 1059444  2026-05-10 02:16:00  4529C  26.7 °C  45.5 %   02:16 
 1059443  2026-05-10 02:14:33  4529D  30.2 °C  74.4 %   02:14 
 1059442  2026-05-10 02:13:42  20402  30.4 °C  56.5 %   02:13 
 1059441  2026-05-10 02:06:37  4529A  28.1 °C  37.7 %   02:06 
 1059440  2026-05-10 02:05:46  4529C  25.5 °C  41.6 %   02:05 
 1059439  2026-05-10 02:05:01  4529D  30.2 °C  74.4 %   02:05 
 1059438  2026-05-10 02:03:32  20402  30.4 °C  56.0 %   02:03 
 1059437  2026-05-10 01:56:26  4529A  28.1 °C  37.8 %   01:56 
 1059436  2026-05-10 01:55:34  4529C  25.3 °C  40.4 %   01:55 
 1059435  2026-05-10 01:55:29  4529D  30.3 °C  74.4 %   01:55 
 1059434  2026-05-10 01:53:22  20402  30.5 °C  56.0 %   01:53 
 1059433  2026-05-10 01:46:11  4529A  28.1 °C  37.9 %   01:46 
 1059432  2026-05-10 01:45:56  4529D  30.3 °C  74.3 %   01:45 
 1059431  2026-05-10 01:45:23  4529C  26.3 °C  46.6 %   01:45 
 1059430  2026-05-10 01:43:11  20402  30.4 °C  54.9 %   01:43 
 1059429  2026-05-10 01:36:24  4529D  30.3 °C  74.2 %   01:36 
 1059428  2026-05-10 01:35:59  4529A  28.1 °C  37.3 %   01:35 
 1059427  2026-05-10 01:35:10  4529C  26.5 °C  46.1 %   01:35 
 1059426  2026-05-10 01:33:01  20402  30.4 °C  54.8 %   01:33 
 1059425  2026-05-10 01:26:51  4529D  30.3 °C  74.1 %   01:26 
 1059424  2026-05-10 01:25:47  4529A  28.2 °C  37.0 %   01:25 
 1059423  2026-05-10 01:24:58  4529C  26.4 °C  46.1 %   01:24 
 1059422  2026-05-10 01:22:49  20402  30.4 °C  54.4 %   01:22 
 1059421  2026-05-10 01:17:18  4529D  30.4 °C  74.0 %   01:17 
 1059420  2026-05-10 01:15:35  4529A  28.3 °C  37.3 %   01:15 
 1059419  2026-05-10 01:14:44  4529C  25.6 °C  41.2 %   01:14 
 1059418  2026-05-10 01:12:39  20402  30.4 °C  54.2 %   01:12 
 1059417  2026-05-10 01:07:45  4529D  30.4 °C  74.0 %   01:07 
 1059416  2026-05-10 01:05:22  4529A  28.3 °C  37.9 %   01:05 
 1059415  2026-05-10 01:04:32  4529C  25.5 °C  40.3 %   01:04 
 1059414  2026-05-10 01:02:29  20402  30.4 °C  54.2 %   01:02 
 1059413  2026-05-10 00:58:12  4529D  30.4 °C  73.9 %   00:58 
 1059412  2026-05-10 00:55:08  4529A  28.2 °C  37.9 %   00:55 
 1059411  2026-05-10 00:54:20  4529C  25.5 °C  41.4 %   00:54 
 1059410  2026-05-10 00:52:19  20402  30.4 °C  54.0 %   00:52 
 1059409  2026-05-10 00:48:39  4529D  30.5 °C  74.0 %   00:48 
 1059408  2026-05-10 00:44:55  4529A  28.5 °C  37.7 %   00:44 
 1059407  2026-05-10 00:44:07  4529C  26.2 °C  44.7 %   00:44 
 1059406  2026-05-10 00:42:09  20402  30.5 °C  54.3 %   00:42 
 1059405  2026-05-10 00:39:07  4529D  30.5 °C  73.8 %   00:39 
 1059404  2026-05-10 00:34:43  4529A  28.6 °C  37.8 %   00:34 
 1059403  2026-05-10 00:33:56  4529C  26.0 °C  44.2 %   00:33 

Data every 20 minute.